createdAt,value
2022-12-13T00:00:26.058Z,42.57
2022-12-13T00:02:49.855Z,39.23
2022-12-13T00:05:14.577Z,40.77
2022-12-13T00:07:38.769Z,35.33
2022-12-13T00:10:02.401Z,39.20
2022-12-13T00:12:27.036Z,38.13
2022-12-13T00:14:50.317Z,35.00
2022-12-13T00:17:13.565Z,41.90
2022-12-13T00:19:36.940Z,37.73
2022-12-13T00:22:00.239Z,38.73
2022-12-13T00:24:23.492Z,41.00
2022-12-13T00:26:46.815Z,38.77
2022-12-13T00:29:13.074Z,38.47
2022-12-13T00:31:59.576Z,41.37
2022-12-13T00:34:20.366Z,38.33
2022-12-13T00:36:43.704Z,42.17
2022-12-13T00:39:07.011Z,42.83
2022-12-13T00:41:32.781Z,36.07
2022-12-13T00:43:56.098Z,39.27
2022-12-13T00:46:22.393Z,34.17
2022-12-13T00:48:50.176Z,36.53
2022-12-13T00:51:13.926Z,38.33
2022-12-13T00:53:38.120Z,40.03
2022-12-13T00:56:01.464Z,42.87
2022-12-13T00:58:24.645Z,41.43
2022-12-13T01:00:48.181Z,37.83
2022-12-13T01:03:25.280Z,40.10
2022-12-13T01:06:14.204Z,41.33
2022-12-13T01:08:32.442Z,38.90
2022-12-13T01:10:56.391Z,38.63
2022-12-13T01:13:19.723Z,38.77
2022-12-13T01:15:43.468Z,41.57
2022-12-13T01:18:06.893Z,36.67
2022-12-13T01:20:31.611Z,41.83
2022-12-13T01:22:54.869Z,38.47
2022-12-13T01:25:18.600Z,42.30
2022-12-13T01:27:41.786Z,39.17
2022-12-13T01:30:06.286Z,39.73
2022-12-13T01:32:29.588Z,40.33
2022-12-13T01:34:52.836Z,40.70
2022-12-13T01:37:17.985Z,35.10
2022-12-13T01:39:41.256Z,41.80
2022-12-13T01:42:05.697Z,38.53
2022-12-13T01:45:03.802Z,44.33
2022-12-13T01:47:33.123Z,38.87
2022-12-13T01:50:01.092Z,36.37
2022-12-13T01:52:27.225Z,38.90
2022-12-13T01:54:53.903Z,42.50
2022-12-13T01:57:20.880Z,44.07
2022-12-13T01:59:46.265Z,44.40
2022-12-13T02:02:12.937Z,37.23
2022-12-13T02:04:44.657Z,39.57
2022-12-13T02:07:08.771Z,36.87
2022-12-13T02:09:38.573Z,40.43
2022-12-13T02:12:02.615Z,41.67
2022-12-13T02:14:25.871Z,39.70
2022-12-13T02:16:59.261Z,34.67
2022-12-13T02:20:09.335Z,36.00
2022-12-13T02:23:03.185Z,35.73
2022-12-13T02:25:54.410Z,36.63
2022-12-13T02:28:45.839Z,38.17
2022-12-13T02:31:14.071Z,40.87
2022-12-13T02:33:54.496Z,38.30
2022-12-13T02:36:28.925Z,44.23
2022-12-13T02:39:04.525Z,40.80
2022-12-13T02:41:37.284Z,43.30
2022-12-13T02:44:22.200Z,41.57
2022-12-13T02:46:53.469Z,36.43
2022-12-13T02:49:18.000Z,44.20
2022-12-13T02:51:41.478Z,42.40
2022-12-13T02:54:05.187Z,43.70
2022-12-13T02:56:28.434Z,43.00
2022-12-13T02:58:56.822Z,42.07
2022-12-13T03:01:50.715Z,42.40
2022-12-13T03:04:27.942Z,41.53
2022-12-13T03:07:03.112Z,44.23
2022-12-13T03:09:40.594Z,41.60
2022-12-13T03:12:38.952Z,40.43
2022-12-13T03:15:10.386Z,41.80
2022-12-13T03:17:42.415Z,45.97
2022-12-13T03:20:12.893Z,41.80
2022-12-13T03:22:46.619Z,42.67
2022-12-13T03:25:10.681Z,40.60
2022-12-13T03:27:34.021Z,41.77
2022-12-13T03:29:57.340Z,38.63
2022-12-13T03:32:20.599Z,37.63
2022-12-13T03:34:47.593Z,44.97
2022-12-13T03:37:12.905Z,43.37
2022-12-13T03:39:36.311Z,44.40
2022-12-13T03:41:59.782Z,45.03
2022-12-13T03:44:23.190Z,43.77
2022-12-13T03:46:46.653Z,40.80
2022-12-13T03:49:13.670Z,40.53
2022-12-13T03:51:41.805Z,39.93
2022-12-13T03:54:05.214Z,44.70
2022-12-13T03:56:28.408Z,42.70
2022-12-13T03:58:51.753Z,41.77
2022-12-13T04:01:16.955Z,46.97
2022-12-13T04:03:46.178Z,43.23
2022-12-13T04:06:10.879Z,44.37
2022-12-13T04:08:36.117Z,42.47
2022-12-13T04:10:59.487Z,43.80
2022-12-13T04:13:34.089Z,43.93
2022-12-13T04:15:57.571Z,50.40
2022-12-13T04:18:21.474Z,43.33
2022-12-13T04:20:45.582Z,43.97
2022-12-13T04:23:09.937Z,44.77
2022-12-13T04:25:35.358Z,40.27
2022-12-13T04:27:59.172Z,44.30
2022-12-13T04:30:22.425Z,43.07
2022-12-13T04:32:45.715Z,40.43
2022-12-13T04:35:09.564Z,43.87
2022-12-13T04:37:33.121Z,45.53
2022-12-13T04:40:00.409Z,41.97
2022-12-13T04:42:26.127Z,43.23
2022-12-13T04:44:49.710Z,43.13
2022-12-13T04:47:12.962Z,42.73
2022-12-13T04:49:36.551Z,42.63
2022-12-13T04:52:01.647Z,45.77
2022-12-13T04:54:25.378Z,44.10
2022-12-13T04:56:48.707Z,42.33
2022-12-13T04:59:13.323Z,49.80
2022-12-13T05:01:36.643Z,44.87
2022-12-13T05:03:59.875Z,46.97
2022-12-13T05:06:27.653Z,49.73
2022-12-13T05:08:51.099Z,47.50
2022-12-13T05:11:14.408Z,41.87
2022-12-13T05:13:37.664Z,48.20
2022-12-13T05:16:05.717Z,45.77
2022-12-13T05:18:29.783Z,47.33
2022-12-13T05:20:53.255Z,44.40
2022-12-13T05:23:22.901Z,43.67
2022-12-13T05:25:46.426Z,44.80
2022-12-13T05:28:27.831Z,47.57
2022-12-13T05:30:52.696Z,46.30
2022-12-13T05:33:19.131Z,43.03
2022-12-13T05:35:42.806Z,50.50
2022-12-13T05:38:06.636Z,53.17
2022-12-13T05:40:32.960Z,50.00
2022-12-13T05:43:01.256Z,50.47
2022-12-13T05:45:26.072Z,48.30
2022-12-13T05:47:49.859Z,48.80
2022-12-13T05:50:16.553Z,49.93
2022-12-13T05:52:41.529Z,49.83
2022-12-13T05:55:05.872Z,50.90
2022-12-13T05:57:29.477Z,48.17
2022-12-13T05:59:52.724Z,56.17
2022-12-13T06:02:21.421Z,45.00
2022-12-13T06:04:45.570Z,50.00
2022-12-13T06:07:10.340Z,54.03
2022-12-13T06:09:39.980Z,48.27
2022-12-13T06:12:03.629Z,52.03
2022-12-13T06:14:47.007Z,50.80
2022-12-13T06:17:10.227Z,52.47
2022-12-13T06:19:33.492Z,53.07
2022-12-13T06:21:56.965Z,50.60
2022-12-13T06:24:23.796Z,49.80
2022-12-13T06:26:47.269Z,49.77
2022-12-13T06:29:10.516Z,53.77
2022-12-13T06:31:34.270Z,51.10
2022-12-13T06:33:57.563Z,47.13
2022-12-13T06:36:21.065Z,52.33
2022-12-13T06:38:44.317Z,49.60
2022-12-13T06:41:11.498Z,58.07
2022-12-13T06:43:34.736Z,53.40
2022-12-13T06:45:59.207Z,54.57
2022-12-13T06:48:22.501Z,56.87
2022-12-13T06:50:45.928Z,54.63
2022-12-13T06:53:09.383Z,55.07
2022-12-13T06:55:32.592Z,52.53
2022-12-13T06:57:58.719Z,57.07
2022-12-13T07:00:23.231Z,55.93
2022-12-13T07:02:54.887Z,54.50
2022-12-13T07:05:18.445Z,57.50
2022-12-13T07:07:41.691Z,59.93
2022-12-13T07:10:05.723Z,60.23
2022-12-13T07:12:36.002Z,59.03
2022-12-13T07:15:00.530Z,52.47
2022-12-13T07:17:33.228Z,59.80
2022-12-13T07:19:57.582Z,57.27
2022-12-13T07:22:24.507Z,56.00
2022-12-13T07:24:48.217Z,55.43
2022-12-13T07:27:11.504Z,59.20
2022-12-13T07:29:34.822Z,54.73
2022-12-13T07:32:01.736Z,52.30
2022-12-13T07:34:25.309Z,61.27
2022-12-13T07:36:50.851Z,56.63
2022-12-13T07:39:14.144Z,55.53
2022-12-13T07:41:37.395Z,55.87
2022-12-13T07:44:02.553Z,53.37
2022-12-13T07:46:32.430Z,57.87
2022-12-13T07:49:01.436Z,52.83
2022-12-13T07:51:25.084Z,52.63
2022-12-13T07:53:48.509Z,54.30
2022-12-13T07:56:13.659Z,55.87
2022-12-13T07:58:37.770Z,51.03
2022-12-13T08:01:02.920Z,51.07
2022-12-13T08:03:26.891Z,50.37
2022-12-13T08:05:59.951Z,51.60
2022-12-13T08:08:23.388Z,56.67
2022-12-13T08:10:54.381Z,53.03
2022-12-13T08:13:25.009Z,55.20
2022-12-13T08:15:48.240Z,54.90
2022-12-13T08:18:11.551Z,56.97
2022-12-13T08:20:34.935Z,56.83
2022-12-13T08:23:02.549Z,52.90
2022-12-13T08:25:27.101Z,51.60
2022-12-13T08:27:50.310Z,44.37
2022-12-13T08:30:22.674Z,47.60
2022-12-13T08:32:46.878Z,48.73
2022-12-13T08:35:10.611Z,46.47
2022-12-13T08:37:33.945Z,47.47
2022-12-13T08:39:58.636Z,49.10
2022-12-13T08:42:21.989Z,46.43
2022-12-13T08:44:45.398Z,50.53
2022-12-13T08:47:09.016Z,50.23
2022-12-13T08:49:32.702Z,56.10
2022-12-13T08:51:56.008Z,53.80
2022-12-13T08:54:31.491Z,49.20
2022-12-13T08:56:56.517Z,47.03
2022-12-13T08:59:20.253Z,48.23
2022-12-13T09:01:43.561Z,44.93
2022-12-13T09:04:06.984Z,42.13
2022-12-13T09:06:30.315Z,41.77
2022-12-13T09:08:55.103Z,41.10
2022-12-13T09:11:32.907Z,45.03
2022-12-13T09:14:01.736Z,41.30
2022-12-13T09:16:26.253Z,42.97
2022-12-13T09:18:55.147Z,42.17
2022-12-13T09:21:22.404Z,38.10
2022-12-13T09:23:55.397Z,40.33
2022-12-13T09:26:25.712Z,42.60
2022-12-13T09:28:49.111Z,37.20
2022-12-13T09:31:16.565Z,39.17
2022-12-13T09:33:40.889Z,44.40
2022-12-13T09:36:06.918Z,41.67
2022-12-13T09:38:31.639Z,42.93
2022-12-13T09:41:01.661Z,38.87
2022-12-13T09:43:31.848Z,41.83
2022-12-13T09:46:01.089Z,36.53
2022-12-13T09:48:26.439Z,40.73
2022-12-13T09:50:57.937Z,39.20
2022-12-13T09:53:34.231Z,34.93
2022-12-13T09:56:09.926Z,34.13
2022-12-13T09:58:34.472Z,35.20
2022-12-13T10:01:00.097Z,33.40
2022-12-13T10:03:27.279Z,37.80
2022-12-13T10:06:00.137Z,35.60
2022-12-13T10:08:26.545Z,34.37
2022-12-13T10:10:53.000Z,39.73
2022-12-13T10:13:21.177Z,41.57
2022-12-13T10:15:51.078Z,35.93
2022-12-13T10:18:21.483Z,38.97
2022-12-13T10:20:46.692Z,36.90
2022-12-13T10:26:03.857Z,40.13
2022-12-13T10:28:31.040Z,38.33
2022-12-13T10:30:54.403Z,38.73
2022-12-13T10:33:27.053Z,37.60
2022-12-13T10:36:06.650Z,39.70
2022-12-13T10:38:32.836Z,35.63
2022-12-13T10:40:56.083Z,35.83
2022-12-13T10:43:22.359Z,35.90
2022-12-13T10:45:59.723Z,37.43
2022-12-13T10:48:26.179Z,39.67
2022-12-13T10:51:02.004Z,34.03
2022-12-13T10:53:31.316Z,33.80
2022-12-13T10:55:56.569Z,35.37
2022-12-13T10:58:37.587Z,38.27
2022-12-13T11:01:21.620Z,39.73
2022-12-13T11:03:57.328Z,36.10
2022-12-13T11:06:29.246Z,41.00
2022-12-13T11:08:53.968Z,34.27
2022-12-13T11:11:20.018Z,33.17
2022-12-13T11:13:47.970Z,35.77
2022-12-13T11:16:25.147Z,36.67
2022-12-13T11:18:53.682Z,33.97
2022-12-13T11:21:28.796Z,34.27
2022-12-13T11:23:52.386Z,29.63
2022-12-13T11:26:24.090Z,33.93
2022-12-13T11:29:08.169Z,31.77
2022-12-13T11:31:39.158Z,38.90
2022-12-13T11:34:11.781Z,34.77
2022-12-13T11:36:45.426Z,33.27
2022-12-13T11:39:21.110Z,32.17
2022-12-13T11:41:53.234Z,35.50
2022-12-13T11:44:21.783Z,33.30
2022-12-13T11:46:51.826Z,31.83
2022-12-13T11:49:19.015Z,31.17
2022-12-13T11:51:50.218Z,35.37
2022-12-13T11:54:24.444Z,36.87
2022-12-13T11:56:49.154Z,27.00
2022-12-13T11:59:27.553Z,33.73
2022-12-13T12:01:56.452Z,28.70
2022-12-13T12:04:36.896Z,32.90
2022-12-13T12:07:31.901Z,30.63
2022-12-13T12:10:02.882Z,32.13
2022-12-13T12:12:33.785Z,32.27
2022-12-13T12:15:06.186Z,34.87
2022-12-13T12:17:42.470Z,31.73
2022-12-13T12:20:13.394Z,31.07
2022-12-13T12:22:47.703Z,30.77
2022-12-13T12:25:29.503Z,29.97
2022-12-13T12:28:02.407Z,32.20
2022-12-13T12:30:28.724Z,32.30
2022-12-13T12:32:58.000Z,25.23
2022-12-13T12:35:56.103Z,28.57
2022-12-13T12:39:11.260Z,25.60
2022-12-13T12:41:49.544Z,29.23
2022-12-13T12:44:31.008Z,24.53
2022-12-13T12:50:26.033Z,26.60
2022-12-13T12:53:25.137Z,28.10
2022-12-13T12:56:01.933Z,27.50
2022-12-13T12:58:31.803Z,24.73
2022-12-13T13:01:21.186Z,23.93
2022-12-13T13:03:47.101Z,26.73
2022-12-13T13:06:15.028Z,27.67
2022-12-13T13:08:50.040Z,29.57
2022-12-13T13:11:24.271Z,25.27
2022-12-13T13:13:53.648Z,26.50
2022-12-13T13:16:38.418Z,26.47
2022-12-13T13:19:02.889Z,25.13
2022-12-13T13:21:36.386Z,25.33
2022-12-13T13:24:25.117Z,27.77
2022-12-13T13:26:52.919Z,24.83
2022-12-13T13:29:38.566Z,24.73
2022-12-13T13:32:37.198Z,25.90
2022-12-13T13:35:48.040Z,23.93
2022-12-13T13:38:55.788Z,25.87
2022-12-13T13:42:03.196Z,25.30
2022-12-13T13:45:16.674Z,30.27
2022-12-13T13:47:42.660Z,26.87
2022-12-13T13:50:44.758Z,26.90
2022-12-13T13:54:04.952Z,24.43
2022-12-13T13:57:13.577Z,27.03
2022-12-13T14:00:13.285Z,26.97
2022-12-13T14:03:34.702Z,28.30
2022-12-13T14:06:42.610Z,25.97
2022-12-13T14:09:56.355Z,23.13
2022-12-13T14:13:29.394Z,25.00
2022-12-13T14:16:47.257Z,23.30
2022-12-13T14:19:59.640Z,25.07
2022-12-13T14:22:33.718Z,24.27
2022-12-13T14:25:18.426Z,27.17
2022-12-13T14:27:59.227Z,26.33
2022-12-13T14:30:27.901Z,24.17
2022-12-13T14:32:54.179Z,26.30
2022-12-13T14:35:26.836Z,31.13
2022-12-13T14:37:58.780Z,25.23
2022-12-13T14:40:33.108Z,26.07
2022-12-13T14:42:56.331Z,27.70
2022-12-13T14:45:26.095Z,24.10
2022-12-13T14:47:49.343Z,24.23
2022-12-13T14:50:18.869Z,22.10
2022-12-13T14:52:42.535Z,20.00
2022-12-13T14:55:09.079Z,21.33
2022-12-13T14:57:34.716Z,23.43
2022-12-13T15:00:00.447Z,20.90
2022-12-13T15:02:31.211Z,24.30
2022-12-13T15:04:56.148Z,24.67
2022-12-13T15:07:31.585Z,20.80
2022-12-13T15:09:58.831Z,21.20
2022-12-13T15:12:24.602Z,21.27
2022-12-13T15:14:54.660Z,23.23
2022-12-13T15:17:40.626Z,28.07
2022-12-13T15:20:32.437Z,19.83
2022-12-13T15:23:15.629Z,18.30
2022-12-13T15:25:44.158Z,20.10
2022-12-13T15:28:08.197Z,22.43
2022-12-13T15:30:35.661Z,23.97
2022-12-13T15:33:17.940Z,22.55
2022-12-13T15:35:41.289Z,21.10
2022-12-13T15:38:28.746Z,20.93
2022-12-13T15:40:53.306Z,17.47
2022-12-13T15:43:20.146Z,20.40
2022-12-13T15:45:47.418Z,23.70
2022-12-13T15:48:25.161Z,21.60
2022-12-13T15:50:49.221Z,20.50
2022-12-13T15:53:25.643Z,21.17
2022-12-13T15:55:49.279Z,23.17
2022-12-13T15:58:26.811Z,22.03
2022-12-13T16:00:50.808Z,21.03
2022-12-13T16:03:18.226Z,21.77
2022-12-13T16:05:50.061Z,21.83
2022-12-13T16:08:28.073Z,20.63
2022-12-13T16:10:54.210Z,19.30
2022-12-13T16:13:27.097Z,21.67
2022-12-13T16:15:52.337Z,20.93
2022-12-13T16:18:27.473Z,19.83
2022-12-13T16:20:51.415Z,20.37
2022-12-13T16:23:26.769Z,20.70
2022-12-13T16:25:52.597Z,19.83
2022-12-13T16:28:17.453Z,19.73
2022-12-13T16:31:10.155Z,19.10
2022-12-13T16:33:33.951Z,21.40
2022-12-13T16:35:57.843Z,22.87
2022-12-13T16:38:26.657Z,21.23
2022-12-13T16:40:56.249Z,22.80
2022-12-13T16:43:23.564Z,23.17
2022-12-13T16:45:51.798Z,26.57
2022-12-13T16:48:15.715Z,24.57
2022-12-13T16:50:42.977Z,22.90
2022-12-13T16:53:10.637Z,23.67
2022-12-13T16:55:36.527Z,21.60
2022-12-13T16:58:03.868Z,22.27
2022-12-13T17:00:27.774Z,22.27
2022-12-13T17:02:51.127Z,20.27
2022-12-13T17:05:14.392Z,22.40
2022-12-13T17:07:37.763Z,23.33
2022-12-13T17:10:01.385Z,27.90
2022-12-13T17:12:26.390Z,26.83
2022-12-13T17:14:51.118Z,24.60
2022-12-13T17:17:17.646Z,25.17
2022-12-13T17:19:41.331Z,24.70
2022-12-13T17:22:04.795Z,25.07
2022-12-13T17:24:28.008Z,17.53
2022-12-13T17:26:54.676Z,23.20
2022-12-13T17:29:18.541Z,24.97
2022-12-13T17:31:43.212Z,24.43
2022-12-13T17:34:06.490Z,21.00
2022-12-13T17:36:31.293Z,22.93
2022-12-13T17:38:54.554Z,19.93
2022-12-13T17:41:18.273Z,19.03
2022-12-13T17:43:42.522Z,23.83
2022-12-13T17:46:10.309Z,20.55
2022-12-13T17:48:40.400Z,22.43
2022-12-13T17:51:05.417Z,22.57
2022-12-13T17:53:28.973Z,19.87
2022-12-13T17:55:57.814Z,20.30
2022-12-13T17:58:21.087Z,20.97
2022-12-13T18:00:44.271Z,19.07
2022-12-13T18:03:07.765Z,18.60
2022-12-13T18:05:33.838Z,19.00
2022-12-13T18:07:57.359Z,21.33
2022-12-13T18:10:24.844Z,25.03
2022-12-13T18:12:51.193Z,17.67
2022-12-13T18:15:14.467Z,21.43
2022-12-13T18:18:09.684Z,22.43
2022-12-13T18:20:21.104Z,20.03
2022-12-13T18:22:51.135Z,23.83
2022-12-13T18:25:14.797Z,19.97
2022-12-13T18:27:38.394Z,24.97
2022-12-13T18:30:01.764Z,22.40
2022-12-13T18:32:25.096Z,20.03
2022-12-13T18:34:48.438Z,23.00
2022-12-13T18:37:17.946Z,23.60
2022-12-13T18:39:43.895Z,19.70
2022-12-13T18:42:18.284Z,16.67
2022-12-13T18:44:41.514Z,19.13
2022-12-13T18:47:21.063Z,16.50
2022-12-13T18:49:54.778Z,22.77
2022-12-13T18:52:19.432Z,18.53
2022-12-13T18:54:45.965Z,19.07
2022-12-13T18:57:19.143Z,20.37
2022-12-13T18:59:43.161Z,18.63
2022-12-13T19:02:17.917Z,18.03
2022-12-13T19:04:41.844Z,21.60
2022-12-13T19:07:20.219Z,18.30
2022-12-13T19:09:54.739Z,19.13
2022-12-13T19:12:18.463Z,22.87
2022-12-13T19:14:41.980Z,18.80
2022-12-13T19:17:05.303Z,23.17
2022-12-13T19:19:29.332Z,17.40
2022-12-13T19:21:52.614Z,20.40
2022-12-13T19:24:16.327Z,18.33
2022-12-13T19:26:41.619Z,18.67
2022-12-13T19:29:05.213Z,18.73
2022-12-13T19:31:32.149Z,17.50
2022-12-13T19:33:57.659Z,21.43
2022-12-13T19:36:20.883Z,20.13
2022-12-13T19:38:45.891Z,17.50
2022-12-13T19:41:10.167Z,14.47
2022-12-13T19:43:34.861Z,18.20
2022-12-13T19:45:58.218Z,19.43
2022-12-13T19:48:21.558Z,17.13
2022-12-13T19:50:45.477Z,18.17
2022-12-13T19:53:09.150Z,18.33
2022-12-13T19:55:32.913Z,16.70
2022-12-13T19:57:56.183Z,21.17
2022-12-13T20:00:20.965Z,20.93
2022-12-13T20:02:44.413Z,19.30
2022-12-13T20:05:08.963Z,22.03
2022-12-13T20:07:32.371Z,22.00
2022-12-13T20:09:55.664Z,16.43
2022-12-13T20:12:20.797Z,20.43
2022-12-13T20:14:44.068Z,21.37
2022-12-13T20:17:08.722Z,20.00
2022-12-13T20:19:32.034Z,18.17
2022-12-13T20:21:57.200Z,21.93
2022-12-13T20:24:20.762Z,21.90
2022-12-13T20:26:44.423Z,20.97
2022-12-13T20:29:10.260Z,21.07
2022-12-13T20:31:36.376Z,20.37
2022-12-13T20:34:03.684Z,21.70
2022-12-13T20:36:28.921Z,21.27
2022-12-13T20:38:52.570Z,20.30
2022-12-13T20:41:15.927Z,25.10
2022-12-13T20:43:41.028Z,19.60
2022-12-13T20:46:06.128Z,23.07
2022-12-13T20:48:29.398Z,25.10
2022-12-13T20:51:01.687Z,18.60
2022-12-13T20:53:25.333Z,19.97
2022-12-13T20:55:48.865Z,19.30
2022-12-13T20:58:12.184Z,17.83
2022-12-13T21:00:35.701Z,16.63
2022-12-13T21:02:59.110Z,21.20
2022-12-13T21:05:22.338Z,21.77
2022-12-13T21:08:04.836Z,21.83
2022-12-13T21:10:28.207Z,20.83
2022-12-13T21:12:51.462Z,20.07
2022-12-13T21:15:15.226Z,20.03
2022-12-13T21:17:39.091Z,24.97
2022-12-13T21:20:02.404Z,20.37
2022-12-13T21:22:26.575Z,21.50
2022-12-13T21:24:51.438Z,22.20
2022-12-13T21:27:14.803Z,21.13
2022-12-13T21:29:38.078Z,19.03
2022-12-13T21:32:01.471Z,19.30
2022-12-13T21:34:25.188Z,23.57
2022-12-13T21:36:50.843Z,22.17
2022-12-13T21:39:17.868Z,22.83
2022-12-13T21:41:43.107Z,25.33
2022-12-13T21:44:07.000Z,22.33
2022-12-13T21:47:02.865Z,28.50
2022-12-13T21:49:14.992Z,23.73
2022-12-13T21:51:38.323Z,30.83
2022-12-13T21:54:03.005Z,25.80
2022-12-13T21:56:46.770Z,24.03
2022-12-13T21:59:18.372Z,25.60
2022-12-13T22:02:07.289Z,24.77
2022-12-13T22:04:31.493Z,22.80
2022-12-13T22:06:54.824Z,24.07
2022-12-13T22:09:18.314Z,24.07
2022-12-13T22:11:42.770Z,24.33
2022-12-13T22:14:06.493Z,20.77
2022-12-13T22:16:31.258Z,27.73
2022-12-13T22:18:55.568Z,25.93
2022-12-13T22:21:18.863Z,22.47
2022-12-13T22:23:42.099Z,25.77
2022-12-13T22:26:07.771Z,22.80
2022-12-13T22:28:31.172Z,21.63
2022-12-13T22:30:55.014Z,27.07
2022-12-13T22:33:19.835Z,21.83
2022-12-13T22:35:43.181Z,26.67
2022-12-13T22:38:06.479Z,21.57
2022-12-13T22:40:29.786Z,20.90
2022-12-13T22:42:53.151Z,22.73
2022-12-13T22:45:16.578Z,24.27
2022-12-13T22:47:39.809Z,22.53
2022-12-13T22:50:04.739Z,24.23
2022-12-13T22:52:33.579Z,23.40
2022-12-13T22:54:58.109Z,21.33
2022-12-13T22:57:21.436Z,22.53
2022-12-13T22:59:44.948Z,25.20
2022-12-13T23:02:09.693Z,22.03
2022-12-13T23:04:33.145Z,25.63
2022-12-13T23:06:57.822Z,21.60
2022-12-13T23:09:22.059Z,20.60
2022-12-13T23:12:03.039Z,20.93
2022-12-13T23:14:29.287Z,27.70
2022-12-13T23:16:52.632Z,20.03
2022-12-13T23:19:41.529Z,20.40
2022-12-13T23:22:02.012Z,18.37
2022-12-13T23:24:25.689Z,19.50
2022-12-13T23:26:49.182Z,22.97
2022-12-13T23:29:12.495Z,20.00
2022-12-13T23:31:38.073Z,21.27
2022-12-13T23:34:01.466Z,20.90
2022-12-13T23:36:26.646Z,21.20
2022-12-13T23:38:52.260Z,23.13
2022-12-13T23:41:23.270Z,21.67
2022-12-13T23:43:48.786Z,17.73
2022-12-13T23:46:15.642Z,21.07
2022-12-13T23:48:39.312Z,20.97
2022-12-13T23:51:04.228Z,25.10
2022-12-13T23:53:28.819Z,20.30
2022-12-13T23:55:53.713Z,18.87
2022-12-13T23:58:18.144Z,19.50
